Ely, MN

12:51 PM CDT on July 25, 2017 (GMT -0500)
Ely Municipal

Weather History for KELO - December, 2012

Change the Weather History Date:

Thursday, December 6, 2012

  Actual Average Record
Temperature  
Mean Temperature 28 °F -  
Max Temperature 35 °F 26 °F 41 °F (2015)
Min Temperature 21 °F 12 °F -16 °F (2007)
Degree Days  
Heating Degree Days 37    
Moisture  
Dew Point 23 °F    
Average Humidity 76    
Maximum Humidity 93    
Minimum Humidity 56    
Precipitation  
Precipitation 0.00 in - - ()
Sea Level Pressure  
Sea Level Pressure 29.72 in    
Wind  
Wind Speed 11 mph (WSW)    
Max Wind Speed 21 mph    
Max Gust Speed 31 mph    
Visibility 10 miles    
Events Rain , Snow    
Averages and records for this station are not official NWS values.
T = Trace of Precipitation, MM = Missing Value Source: NWS Daily Summary

Daily Weather History Graph

Daily Weather History Graph

Search for Another Location

Airport or City:

Trip Planner

Search our weather history database for the weather conditions in past years. The results will help you decide how hot, cold, wet, or windy it might be!

Date:

Astronomy

Dec. 06, 2012 Rise Set
Actual Time 7:41 AM CST 4:15 PM CST
Civil Twilight 7:06 AM CST 4:51 PM CST
Nautical Twilight 6:26 AM CST 5:30 PM CST
Astronomical Twilight 5:49 AM CST 6:07 PM CST
Moon No Moon Rise 12:09 PM CST (12/6)
Length of Visible Light 9h 44m
Length of Day
8h 33m
Waning Gibbous, 49% of the Moon is Illuminated
Dec 6
Waning Gibbous
Dec 13
New
Dec 19
First Quarter
Dec 28
Full
Jan 4
Last Quarter

Hourly Weather History & Observations

Time (CST) Temp. Windchill Dew Point Humidity Pressure Visibility Wind Dir Wind Speed Gust Speed Precip Events Conditions
12:13 AM 32.0 °F 22.1 °F 19.4 °F 60% 29.75 in 10.0 mi South 13.8 mph 19.6 mph N/A   Mostly Cloudy
12:33 AM 33.8 °F 25.3 °F 19.4 °F 56% 29.74 in 10.0 mi South 11.5 mph 20.7 mph N/A   Overcast
12:53 AM 33.8 °F 23.5 °F 19.4 °F 56% 29.73 in 10.0 mi South 16.1 mph 20.7 mph N/A   Mostly Cloudy
1:13 AM 33.8 °F 25.3 °F 19.4 °F 56% 29.73 in 10.0 mi South 11.5 mph - N/A   Mostly Cloudy
1:33 AM 32.0 °F 22.5 °F 21.2 °F 64% 29.73 in 10.0 mi South 12.7 mph 17.3 mph N/A Snow Light Snow
1:53 AM 33.8 °F 24.8 °F 21.2 °F 60% 29.72 in 10.0 mi South 12.7 mph 17.3 mph N/A   Mostly Cloudy
2:13 AM 33.8 °F 25.8 °F 21.2 °F 60% 29.72 in 10.0 mi SSW 10.4 mph 18.4 mph N/A   Overcast
2:33 AM 33.8 °F 25.8 °F 21.2 °F 60% 29.70 in 10.0 mi South 10.4 mph 19.6 mph N/A   Mostly Cloudy
2:53 AM 33.8 °F 25.8 °F 21.2 °F 60% 29.69 in 10.0 mi South 10.4 mph 18.4 mph N/A   Mostly Cloudy
3:13 AM 33.8 °F 23.9 °F 21.2 °F 60% 29.67 in 10.0 mi South 15.0 mph 20.7 mph N/A Rain Light Rain
3:33 AM 33.8 °F 22.2 °F 24.8 °F 70% 29.59 in 10.0 mi SSE 20.7 mph 31.1 mph N/A Rain Light Rain
3:52 AM 33.8 °F 25.3 °F 24.8 °F 70% 29.63 in 10.0 mi WSW 11.5 mph 19.6 mph N/A   Scattered Clouds
4:13 AM 35.6 °F 27.5 °F 24.8 °F 65% 29.64 in 10.0 mi SSW 11.5 mph 18.4 mph N/A   Scattered Clouds
4:33 AM 35.6 °F 28.6 °F 24.8 °F 65% 29.63 in 10.0 mi SSW 9.2 mph 20.7 mph N/A   Clear
4:53 AM 35.6 °F 28.0 °F 26.6 °F 70% 29.62 in 10.0 mi South 10.4 mph 24.2 mph N/A   Clear
5:13 AM 35.6 °F 29.2 °F 26.6 °F 70% 29.62 in 10.0 mi SSW 8.1 mph - N/A   Scattered Clouds
5:33 AM 35.6 °F 28.6 °F 26.6 °F 70% 29.62 in 10.0 mi SSW 9.2 mph - N/A   Mostly Cloudy
5:53 AM 35.6 °F 30.7 °F 26.6 °F 70% 29.62 in 10.0 mi SW 5.8 mph - N/A   Overcast
6:13 AM 35.6 °F 28.6 °F 26.6 °F 70% 29.62 in 10.0 mi SSW 9.2 mph - N/A   Overcast
6:33 AM 35.6 °F 29.2 °F 26.6 °F 70% 29.62 in 10.0 mi SSW 8.1 mph - N/A   Overcast
6:53 AM 35.6 °F 29.2 °F 26.6 °F 70% 29.61 in 10.0 mi SW 8.1 mph - N/A   Scattered Clouds
7:13 AM 35.6 °F 29.2 °F 26.6 °F 70% 29.62 in 10.0 mi SW 8.1 mph - N/A   Clear
7:33 AM 35.6 °F 27.5 °F 26.6 °F 70% 29.62 in 10.0 mi SW 11.5 mph 16.1 mph N/A   Clear
7:53 AM 35.6 °F 29.2 °F 26.6 °F 70% 29.62 in 10.0 mi SSW 8.1 mph - N/A   Clear
8:13 AM 33.8 °F 26.4 °F 26.6 °F 75% 29.62 in 10.0 mi SW 9.2 mph - N/A   Scattered Clouds
8:33 AM 35.6 °F 29.9 °F 28.4 °F 75% 29.62 in 10.0 mi SW 6.9 mph - N/A   Mostly Cloudy
8:53 AM 35.6 °F 29.9 °F 28.4 °F 75% 29.63 in 10.0 mi WSW 6.9 mph - N/A   Overcast
9:13 AM 35.6 °F 29.9 °F 28.4 °F 75% 29.63 in 10.0 mi WSW 6.9 mph - N/A   Overcast
9:33 AM 33.8 °F 28.6 °F 28.4 °F 81% 29.63 in 10.0 mi WSW 5.8 mph - N/A   Mostly Cloudy
9:53 AM 35.6 °F 29.2 °F 28.4 °F 75% 29.64 in 10.0 mi WSW 8.1 mph - N/A   Mostly Cloudy
10:13 AM 35.6 °F 29.9 °F 28.4 °F 75% 29.64 in 10.0 mi WSW 6.9 mph - N/A   Overcast
10:33 AM 35.6 °F 28.0 °F 28.4 °F 75% 29.65 in 10.0 mi West 10.4 mph 19.6 mph N/A   Overcast
10:53 AM 33.8 °F 27.0 °F 28.4 °F 81% 29.65 in 10.0 mi West 8.1 mph 16.1 mph N/A   Overcast
11:13 AM 33.8 °F 24.3 °F 28.4 °F 81% 29.65 in 10.0 mi West 13.8 mph 19.6 mph N/A   Overcast
11:33 AM 33.8 °F 25.3 °F 28.4 °F 81% 29.64 in 10.0 mi West 11.5 mph 16.1 mph N/A   Overcast
11:53 AM 33.8 °F 24.8 °F 28.4 °F 81% 29.64 in 10.0 mi West 12.7 mph 17.3 mph N/A   Overcast
12:13 PM 33.8 °F 26.4 °F 28.4 °F 81% 29.65 in 10.0 mi West 9.2 mph 19.6 mph N/A   Overcast
12:33 PM 33.8 °F 25.3 °F 28.4 °F 81% 29.66 in 10.0 mi West 11.5 mph 18.4 mph N/A   Overcast
12:53 PM 32.0 °F 22.1 °F 30.2 °F 93% 29.66 in 4.0 mi West 13.8 mph 23.0 mph N/A   Overcast
1:13 PM 32.0 °F 23.0 °F 28.4 °F 87% 29.67 in 10.0 mi West 11.5 mph 23.0 mph N/A   Overcast
1:33 PM 30.2 °F 20.8 °F 28.4 °F 93% 29.68 in 10.0 mi West 11.5 mph 23.0 mph N/A   Overcast
1:53 PM 30.2 °F 20.2 °F 28.4 °F 93% 29.69 in 10.0 mi West 12.7 mph 19.6 mph N/A   Overcast
2:13 PM 30.2 °F 20.2 °F 26.6 °F 86% 29.70 in 10.0 mi West 12.7 mph 24.2 mph N/A   Overcast
2:33 PM 28.4 °F 16.6 °F 26.6 °F 93% 29.71 in 10.0 mi West 16.1 mph 24.2 mph N/A   Overcast
2:53 PM 28.4 °F 15.8 °F 24.8 °F 86% 29.72 in 10.0 mi West 18.4 mph 24.2 mph N/A   Overcast
3:13 PM 28.4 °F 17.0 °F 24.8 °F 86% 29.73 in 10.0 mi West 15.0 mph 26.5 mph N/A   Overcast
3:33 PM 26.6 °F 16.8 °F 23.0 °F 86% 29.74 in 10.0 mi West 10.4 mph 20.7 mph N/A   Overcast
3:53 PM 26.6 °F 15.7 °F 21.2 °F 80% 29.75 in 10.0 mi WNW 12.7 mph 23.0 mph N/A   Overcast
4:13 PM 26.6 °F 16.2 °F 21.2 °F 80% 29.76 in 10.0 mi West 11.5 mph - N/A   Overcast
4:33 PM 26.6 °F 15.7 °F 21.2 °F 80% 29.77 in 10.0 mi West 12.7 mph 18.4 mph N/A   Overcast
4:53 PM 26.6 °F 16.2 °F 19.4 °F 74% 29.79 in 10.0 mi West 11.5 mph 20.7 mph N/A   Overcast
5:13 PM 24.8 °F 15.3 °F 19.4 °F 80% 29.79 in 10.0 mi West 9.2 mph - N/A   Overcast
5:31 PM 24.8 °F 11.5 °F 19.4 °F 80% 29.79 in 10.0 mi West 17.3 mph 20.7 mph N/A   Overcast
5:53 PM 24.8 °F 12.9 °F 17.6 °F 74% 29.79 in 10.0 mi West 13.8 mph 24.2 mph N/A   Overcast
6:13 PM 24.8 °F 15.3 °F 19.4 °F 80% 29.80 in 10.0 mi West 9.2 mph 18.4 mph N/A   Overcast
6:33 PM 23.0 °F 11.7 °F 17.6 °F 80% 29.81 in 10.0 mi West 11.5 mph 17.3 mph N/A   Overcast
6:53 PM 23.0 °F 13.1 °F 17.6 °F 80% 29.82 in 10.0 mi West 9.2 mph - N/A   Overcast
7:13 PM 23.0 °F 11.7 °F 17.6 °F 80% 29.82 in 10.0 mi West 11.5 mph - N/A   Overcast
7:33 PM 21.2 °F 10.1 °F 17.6 °F 86% 29.82 in 10.0 mi West 10.4 mph 17.3 mph N/A   Overcast
7:53 PM 21.2 °F 9.5 °F 15.8 °F 80% 29.83 in 10.0 mi West 11.5 mph 18.4 mph N/A   Overcast
8:32 PM 21.2 °F 9.5 °F 15.8 °F 80% 29.85 in 10.0 mi WNW 11.5 mph 23.0 mph N/A   Overcast
8:53 PM 21.2 °F 10.9 °F 15.8 °F 80% 29.85 in 10.0 mi West 9.2 mph - N/A   Overcast
9:13 PM 21.2 °F 10.1 °F 15.8 °F 80% 29.85 in 10.0 mi West 10.4 mph 17.3 mph N/A   Overcast
9:32 PM 21.2 °F 11.7 °F 15.8 °F 80% 29.86 in 10.0 mi West 8.1 mph - N/A   Overcast
9:53 PM 21.2 °F 10.9 °F 15.8 °F 80% 29.85 in 10.0 mi WNW 9.2 mph 16.1 mph N/A   Overcast
10:13 PM 21.2 °F 12.6 °F 17.6 °F 86% 29.85 in 10.0 mi West 6.9 mph - N/A   Overcast
10:33 PM 21.2 °F 13.6 °F 17.6 °F 86% 29.85 in 10.0 mi West 5.8 mph - N/A   Overcast
10:53 PM 21.2 °F 10.9 °F 17.6 °F 86% 29.86 in 10.0 mi WNW 9.2 mph - N/A   Overcast
11:13 PM 21.2 °F 11.7 °F 17.6 °F 86% 29.86 in 10.0 mi West 8.1 mph 16.1 mph N/A   Overcast
11:33 PM 21.2 °F 12.6 °F 17.6 °F 86% 29.86 in 10.0 mi WNW 6.9 mph 16.1 mph N/A   Overcast
11:53 PM 21.2 °F 9.5 °F 15.8 °F 80% 29.87 in 10.0 mi West 11.5 mph 17.3 mph N/A   Overcast